Terminal Aerodrome Forecast
Issued by NWS

Home | Current Version | Previous Version | Text Only | Print | Product List | Glossary On
Versions: 1 2 3 4 5 6 7 8 9 10 11 12 13 14 15 16 17 18 19 20 21 22 23 24 25
431
FTUS45 KTFX 260537
TAFCTB
TAF
KCTB 260537Z 2606/2706 26022G32KT P6SM VCSH SCT035 OVC060
      WS020/28030KT
      TEMPO 2608/2610 5SM -SHSN BLSN BKN025
     FM261000 34015G25KT 4SM -SN BLSN SCT010 OVC020
      TEMPO 2610/2614 2SM -SN BLSN BKN010
     FM261400 01010G18KT 1SM -SN BR OVC008
     FM262100 02010KT 2SM -SN BR SCT008 OVC015=

USA.gov is the U.S. government's official web portal to all federal, state and local government web resources and services.